Long Island, Kansas
Current Conditions -  °F | °C
As of 2:15 PM on Sunday 21 Dec 2014 (Local Time) from KHDE Reporting Station
Haze Haze  
Wind Chill: 33°   Ceiling: 600
Heat Index: 39°   Visibility: 4mi
Dew Point: 37°   Wind: 8mph
Humidity: 92%   Direction: 190°S
Pressure: 29.62"   Gusts: 16mph
Location:  39.95°N, 99.54°W
Report Text: KHDE 212015Z AUTO 19007G14KT 4SM BR OVC006 04/03 A2962 RMK AO2 T00380026
Loading
Personal Weather Stations






























Interactive Weather Map New forecast layout! Learn more

10-Day Weather Forecast

Advertisements
Track Severe Weather on mobile